createdAt,value
2023-02-22T00:00:40.606Z,24.58
2023-02-22T00:03:11.109Z,24.56
2023-02-22T00:05:40.897Z,24.54
2023-02-22T00:08:09.990Z,24.52
2023-02-22T00:10:38.419Z,24.52
2023-02-22T00:13:08.116Z,24.51
2023-02-22T00:15:35.700Z,24.50
2023-02-22T00:18:04.453Z,24.48
2023-02-22T00:20:32.755Z,24.48
2023-02-22T00:23:01.468Z,24.48
2023-02-22T00:25:28.378Z,24.47
2023-02-22T00:27:56.233Z,24.46
2023-02-22T00:30:26.748Z,24.45
2023-02-22T00:32:55.974Z,24.45
2023-02-22T00:35:25.251Z,24.43
2023-02-22T00:37:56.070Z,24.43
2023-02-22T00:40:25.362Z,24.42
2023-02-22T00:42:52.911Z,24.42
2023-02-22T00:45:21.697Z,24.41
2023-02-22T00:47:48.632Z,24.40
2023-02-22T00:50:16.424Z,24.38
2023-02-22T00:52:43.302Z,24.38
2023-02-22T00:55:17.793Z,24.37
2023-02-22T00:57:45.303Z,24.36
2023-02-22T01:00:17.898Z,24.35
2023-02-22T01:02:45.058Z,24.35
2023-02-22T01:05:14.821Z,24.35
2023-02-22T01:07:42.265Z,24.35
2023-02-22T01:10:12.029Z,24.35
2023-02-22T01:12:38.931Z,24.33
2023-02-22T01:15:10.433Z,24.32
2023-02-22T01:17:37.162Z,24.32
2023-02-22T01:20:10.198Z,24.29
2023-02-22T01:22:37.541Z,24.28
2023-02-22T01:25:07.319Z,24.27
2023-02-22T01:27:36.104Z,24.27
2023-02-22T01:30:08.659Z,24.27
2023-02-22T01:32:36.444Z,24.26
2023-02-22T01:35:05.073Z,24.25
2023-02-22T01:37:32.460Z,24.24
2023-02-22T01:40:00.566Z,24.23
2023-02-22T01:42:29.273Z,24.24
2023-02-22T01:45:38.526Z,24.23
2023-02-22T01:48:09.458Z,24.20
2023-02-22T01:50:40.351Z,24.19
2023-02-22T01:53:09.260Z,24.18
2023-02-22T01:55:36.472Z,24.19
2023-02-22T01:58:05.064Z,24.17
2023-02-22T02:00:33.533Z,24.19
2023-02-22T02:03:04.674Z,24.18
2023-02-22T02:05:34.342Z,24.16
2023-02-22T02:08:08.892Z,24.16
2023-02-22T02:10:36.031Z,24.15
2023-02-22T02:13:04.013Z,24.14
2023-02-22T02:15:33.735Z,24.13
2023-02-22T02:18:05.041Z,24.14
2023-02-22T02:20:40.659Z,24.13
2023-02-22T02:23:24.651Z,24.13
2023-02-22T02:26:22.880Z,24.12
2023-02-22T02:29:25.610Z,24.10
2023-02-22T02:32:22.768Z,24.09
2023-02-22T02:34:53.795Z,24.06
2023-02-22T02:37:27.689Z,24.07
2023-02-22T02:39:59.260Z,24.06
2023-02-22T02:42:34.684Z,24.06
2023-02-22T02:45:10.017Z,24.06
2023-02-22T02:47:42.432Z,24.05
2023-02-22T02:50:11.668Z,24.05
2023-02-22T02:52:40.812Z,24.05
2023-02-22T02:55:11.308Z,24.05
2023-02-22T02:57:41.462Z,24.05
2023-02-22T03:00:22.648Z,24.05
2023-02-22T03:03:10.364Z,24.03
2023-02-22T03:05:59.541Z,24.02
2023-02-22T03:08:34.655Z,24.00
2023-02-22T03:11:15.123Z,23.99
2023-02-22T03:13:52.120Z,24.00
2023-02-22T03:16:29.725Z,23.98
2023-02-22T03:19:08.906Z,23.98
2023-02-22T03:21:47.996Z,23.98
2023-02-22T03:24:21.484Z,23.97
2023-02-22T03:26:54.018Z,23.97
2023-02-22T03:29:23.815Z,23.98
2023-02-22T03:31:53.652Z,23.97
2023-02-22T03:34:27.560Z,23.97
2023-02-22T03:36:59.143Z,23.97
2023-02-22T03:39:31.088Z,23.97
2023-02-22T03:42:06.902Z,23.96
2023-02-22T03:44:38.417Z,23.94
2023-02-22T03:47:09.561Z,23.94
2023-02-22T03:49:42.808Z,23.94
2023-02-22T03:52:10.234Z,23.93
2023-02-22T03:54:38.612Z,23.92
2023-02-22T03:57:09.964Z,23.92
2023-02-22T03:59:40.625Z,23.92
2023-02-22T04:02:07.561Z,23.90
2023-02-22T04:04:34.608Z,23.90
2023-02-22T04:07:03.538Z,23.90
2023-02-22T04:09:30.660Z,23.92
2023-02-22T04:11:57.663Z,23.90
2023-02-22T04:14:25.801Z,23.90
2023-02-22T04:16:54.229Z,23.90
2023-02-22T04:19:21.323Z,23.90
2023-02-22T04:21:50.637Z,23.90
2023-02-22T04:24:24.045Z,23.89
2023-02-22T04:26:51.142Z,23.88
2023-02-22T04:29:19.103Z,23.88
2023-02-22T04:31:46.011Z,23.88
2023-02-22T04:34:12.928Z,23.87
2023-02-22T04:36:42.393Z,23.87
2023-02-22T04:39:09.687Z,23.86
2023-02-22T04:41:37.939Z,23.84
2023-02-22T04:44:06.662Z,23.86
2023-02-22T04:46:34.322Z,23.86
2023-02-22T04:49:02.800Z,23.84
2023-02-22T04:51:32.270Z,23.84
2023-02-22T04:54:07.438Z,23.82
2023-02-22T04:56:38.260Z,23.83
2023-02-22T04:59:05.933Z,23.82
2023-02-22T05:01:33.727Z,23.81
2023-02-22T05:04:02.159Z,23.80
2023-02-22T05:06:29.116Z,23.80
2023-02-22T05:08:55.964Z,23.79
2023-02-22T05:11:22.903Z,23.78
2023-02-22T05:13:51.328Z,23.79
2023-02-22T05:16:18.366Z,23.77
2023-02-22T05:18:45.372Z,23.79
2023-02-22T05:21:13.596Z,23.78
2023-02-22T05:23:41.455Z,23.76
2023-02-22T05:26:10.019Z,23.76
2023-02-22T05:28:38.411Z,23.77
2023-02-22T05:31:07.541Z,23.77
2023-02-22T05:33:34.470Z,23.81
2023-02-22T05:36:01.358Z,23.81
2023-02-22T05:38:28.617Z,23.82
2023-02-22T05:40:56.936Z,23.82
2023-02-22T05:43:23.845Z,23.86
2023-02-22T05:45:50.725Z,23.86
2023-02-22T05:48:20.693Z,23.88
2023-02-22T05:50:49.951Z,23.91
2023-02-22T05:53:16.986Z,23.92
2023-02-22T05:55:46.203Z,23.95
2023-02-22T05:58:13.486Z,23.99
2023-02-22T06:00:40.461Z,24.03
2023-02-22T06:03:09.376Z,24.09
2023-02-22T06:05:37.894Z,24.15
2023-02-22T06:08:06.804Z,24.27
2023-02-22T06:10:33.909Z,24.32
2023-02-22T06:13:01.925Z,24.41
2023-02-22T06:15:29.658Z,24.50
2023-02-22T06:17:57.878Z,24.57
2023-02-22T06:20:27.302Z,24.64
2023-02-22T06:22:56.630Z,24.72
2023-02-22T06:25:25.208Z,24.78
2023-02-22T06:27:52.387Z,24.84
2023-02-22T06:30:21.612Z,24.91
2023-02-22T06:32:48.539Z,24.96
2023-02-22T06:35:16.121Z,25.00
2023-02-22T06:37:42.966Z,25.05
2023-02-22T06:40:12.488Z,25.07
2023-02-22T06:42:39.957Z,25.08
2023-02-22T06:45:07.614Z,25.12
2023-02-22T06:47:38.508Z,25.12
2023-02-22T06:50:05.789Z,25.10
2023-02-22T06:52:32.685Z,25.11
2023-02-22T06:54:59.489Z,25.10
2023-02-22T06:57:27.636Z,25.07
2023-02-22T06:59:54.485Z,24.97
2023-02-22T07:02:21.295Z,24.93
2023-02-22T07:04:48.154Z,24.91
2023-02-22T07:07:14.998Z,24.86
2023-02-22T07:09:42.187Z,24.83
2023-02-22T07:12:10.306Z,24.80
2023-02-22T07:14:38.506Z,24.79
2023-02-22T07:17:05.374Z,24.78
2023-02-22T07:19:32.146Z,24.76
2023-02-22T07:21:59.413Z,24.75
2023-02-22T07:24:28.381Z,24.72
2023-02-22T07:26:55.714Z,24.70
2023-02-22T07:29:22.633Z,24.70
2023-02-22T07:31:51.060Z,24.67
2023-02-22T07:34:18.013Z,24.66
2023-02-22T07:36:44.902Z,24.63
2023-02-22T07:39:11.820Z,24.59
2023-02-22T07:41:38.773Z,24.56
2023-02-22T07:44:14.561Z,24.53
2023-02-22T07:46:41.423Z,24.52
2023-02-22T07:49:09.613Z,24.50
2023-02-22T07:51:36.466Z,24.48
2023-02-22T07:54:03.344Z,24.45
2023-02-22T07:56:30.203Z,24.44
2023-02-22T07:58:57.096Z,24.42
2023-02-22T08:01:24.727Z,24.40
2023-02-22T08:03:52.648Z,24.37
2023-02-22T08:06:21.091Z,24.34
2023-02-22T08:08:47.941Z,24.32
2023-02-22T08:11:15.095Z,24.29
2023-02-22T08:13:42.090Z,24.27
2023-02-22T08:16:09.148Z,24.26
2023-02-22T08:18:38.271Z,24.26
2023-02-22T08:21:05.477Z,24.30
2023-02-22T08:23:34.497Z,24.32
2023-02-22T08:26:05.383Z,24.36
2023-02-22T08:28:32.374Z,24.40
2023-02-22T08:30:59.310Z,24.41
2023-02-22T08:33:26.301Z,24.43
2023-02-22T08:35:53.213Z,24.40
2023-02-22T08:38:22.510Z,24.40
2023-02-22T08:40:51.222Z,24.41
2023-02-22T08:43:18.497Z,24.40
2023-02-22T08:45:46.076Z,24.41
2023-02-22T08:48:14.065Z,24.42
2023-02-22T08:50:41.951Z,24.44
2023-02-22T08:53:10.623Z,24.44
2023-02-22T08:55:38.696Z,24.46
2023-02-22T08:58:10.289Z,24.45
2023-02-22T09:00:38.801Z,24.46
2023-02-22T09:03:07.345Z,24.47
2023-02-22T09:05:34.379Z,24.47
2023-02-22T09:08:01.698Z,24.48
2023-02-22T09:10:31.446Z,24.48
2023-02-22T09:13:00.609Z,24.48
2023-02-22T09:15:29.118Z,24.48
2023-02-22T09:17:56.306Z,24.51
2023-02-22T09:20:25.000Z,24.52
2023-02-22T09:22:52.746Z,24.52
2023-02-22T09:25:23.399Z,24.52
2023-02-22T09:27:51.234Z,24.57
2023-02-22T09:30:23.588Z,24.60
2023-02-22T09:32:54.070Z,24.60
2023-02-22T09:35:26.976Z,24.60
2023-02-22T09:37:55.222Z,24.62
2023-02-22T09:40:25.913Z,24.64
2023-02-22T09:43:02.474Z,24.63
2023-02-22T09:45:36.849Z,24.66
2023-02-22T09:48:21.294Z,24.66
2023-02-22T09:50:51.687Z,24.66
2023-02-22T09:53:31.618Z,24.66
2023-02-22T09:56:05.057Z,24.66
2023-02-22T09:58:34.481Z,24.67
2023-02-22T10:01:18.809Z,24.68
2023-02-22T10:03:55.539Z,24.70
2023-02-22T10:06:24.933Z,24.69
2023-02-22T10:08:56.488Z,24.70
2023-02-22T10:11:37.613Z,24.66
2023-02-22T10:14:20.098Z,24.66
2023-02-22T10:16:53.248Z,24.67
2023-02-22T10:19:31.603Z,24.67
2023-02-22T10:22:28.613Z,24.67
2023-02-22T10:25:00.709Z,24.63
2023-02-22T10:27:32.827Z,24.63
2023-02-22T10:30:12.806Z,24.62
2023-02-22T10:32:53.157Z,24.61
2023-02-22T10:35:25.697Z,24.61
2023-02-22T10:37:56.281Z,24.60
2023-02-22T10:40:32.204Z,24.60
2023-02-22T10:43:02.836Z,24.63
2023-02-22T10:45:35.958Z,24.63
2023-02-22T10:48:08.599Z,24.61
2023-02-22T10:50:39.829Z,24.60
2023-02-22T10:53:07.509Z,24.58
2023-02-22T10:55:34.585Z,24.59
2023-02-22T10:58:07.452Z,24.59
2023-02-22T11:00:37.448Z,24.57
2023-02-22T11:03:15.594Z,24.60
2023-02-22T11:05:44.128Z,24.61
2023-02-22T11:08:16.655Z,24.62
2023-02-22T11:10:44.005Z,24.60
2023-02-22T11:13:18.629Z,24.57
2023-02-22T11:15:45.672Z,24.57
2023-02-22T11:18:24.925Z,24.56
2023-02-22T11:21:02.373Z,24.55
2023-02-22T11:23:29.736Z,24.52
2023-02-22T11:26:07.536Z,24.51
2023-02-22T11:28:35.224Z,24.48
2023-02-22T11:31:14.501Z,24.47
2023-02-22T11:33:49.018Z,24.46
2023-02-22T11:36:31.264Z,24.44
2023-02-22T11:39:00.842Z,24.43
2023-02-22T11:41:34.975Z,24.39
2023-02-22T11:44:23.624Z,24.38
2023-02-22T11:46:52.044Z,24.36
2023-02-22T11:49:20.099Z,24.36
2023-02-22T11:52:06.709Z,24.33
2023-02-22T11:54:53.096Z,24.34
2023-02-22T11:57:38.470Z,24.32
2023-02-22T12:00:16.372Z,24.31
2023-02-22T12:03:13.010Z,24.28
2023-02-22T12:05:59.648Z,24.28
2023-02-22T12:08:37.723Z,24.26
2023-02-22T12:11:13.870Z,24.26
2023-02-22T12:13:59.321Z,24.24
2023-02-22T12:16:38.100Z,24.24
2023-02-22T12:19:15.003Z,24.24
2023-02-22T12:21:46.665Z,24.28
2023-02-22T12:24:19.369Z,24.36
2023-02-22T12:26:50.503Z,24.42
2023-02-22T12:29:26.798Z,24.50
2023-02-22T12:32:00.505Z,24.60
2023-02-22T12:34:35.903Z,24.68
2023-02-22T12:37:13.055Z,24.75
2023-02-22T12:39:53.562Z,24.81
2023-02-22T12:42:28.575Z,24.86
2023-02-22T12:45:01.060Z,24.89
2023-02-22T12:47:35.486Z,24.90
2023-02-22T12:50:11.719Z,24.90
2023-02-22T12:52:44.545Z,24.91
2023-02-22T12:55:16.830Z,24.92
2023-02-22T12:57:49.002Z,24.94
2023-02-22T13:00:23.134Z,24.93
2023-02-22T13:02:58.802Z,24.92
2023-02-22T13:05:26.173Z,24.91
2023-02-22T13:08:19.521Z,24.92
2023-02-22T13:11:10.936Z,24.92
2023-02-22T13:13:54.282Z,24.88
2023-02-22T13:16:32.893Z,24.86
2023-02-22T13:19:04.909Z,24.90
2023-02-22T13:21:41.113Z,24.91
2023-02-22T13:24:18.599Z,24.91
2023-02-22T13:26:51.411Z,24.91
2023-02-22T13:29:23.276Z,24.91
2023-02-22T13:32:04.492Z,24.92
2023-02-22T13:34:46.709Z,24.92
2023-02-22T13:37:36.004Z,24.93
2023-02-22T13:40:39.231Z,24.92
2023-02-22T13:43:25.140Z,24.93
2023-02-22T13:46:12.609Z,24.92
2023-02-22T13:49:03.132Z,24.91
2023-02-22T13:51:56.670Z,24.90
2023-02-22T13:54:31.278Z,24.92
2023-02-22T13:56:58.217Z,24.92
2023-02-22T13:59:30.121Z,24.92
2023-02-22T14:01:58.912Z,24.94
2023-02-22T14:04:38.256Z,25.04
2023-02-22T14:07:40.807Z,25.20
2023-02-22T14:10:46.629Z,25.47
2023-02-22T14:13:17.201Z,25.62
2023-02-22T14:16:22.909Z,25.71
2023-02-22T14:19:00.047Z,25.75
2023-02-22T14:21:26.962Z,25.82
2023-02-22T14:23:55.920Z,25.86
2023-02-22T14:26:26.867Z,25.91
2023-02-22T14:28:58.101Z,25.95
2023-02-22T14:31:35.931Z,26.01
2023-02-22T14:34:10.024Z,26.08
2023-02-22T14:36:44.699Z,26.15
2023-02-22T14:39:17.929Z,26.21
2023-02-22T14:41:51.621Z,26.26
2023-02-22T14:44:27.556Z,26.29
2023-02-22T14:46:56.940Z,26.26
2023-02-22T14:49:28.460Z,26.23
2023-02-22T14:51:59.535Z,26.20
2023-02-22T14:54:32.895Z,26.15
2023-02-22T14:57:14.812Z,26.13
2023-02-22T14:59:58.926Z,26.08
2023-02-22T15:02:26.166Z,26.03
2023-02-22T15:04:54.523Z,26.02
2023-02-22T15:07:27.440Z,26.00
2023-02-22T15:10:25.329Z,25.97
2023-02-22T15:12:59.056Z,25.92
2023-02-22T15:15:27.602Z,25.86
2023-02-22T15:17:56.531Z,25.84
2023-02-22T15:20:25.707Z,25.82
2023-02-22T15:22:59.459Z,25.84
2023-02-22T15:25:28.793Z,25.81
2023-02-22T15:28:01.693Z,25.79
2023-02-22T15:30:32.982Z,25.78
2023-02-22T15:33:14.730Z,25.76
2023-02-22T15:35:42.432Z,25.72
2023-02-22T15:38:20.200Z,25.70
2023-02-22T15:40:50.747Z,25.68
2023-02-22T15:43:24.170Z,25.67
2023-02-22T15:45:52.736Z,25.67
2023-02-22T15:48:19.870Z,25.64
2023-02-22T15:51:10.561Z,25.64
2023-02-22T15:53:43.120Z,25.60
2023-02-22T15:56:14.592Z,25.61
2023-02-22T15:58:43.297Z,25.59
2023-02-22T16:01:18.766Z,25.58
2023-02-22T16:03:48.966Z,25.57
2023-02-22T16:06:28.625Z,25.56
2023-02-22T16:08:58.790Z,25.55
2023-02-22T16:11:30.594Z,25.55
2023-02-22T16:14:01.153Z,25.55
2023-02-22T16:16:32.307Z,25.54
2023-02-22T16:19:37.701Z,25.53
2023-02-22T16:22:13.576Z,25.52
2023-02-22T16:24:41.010Z,25.52
2023-02-22T16:27:18.837Z,25.52
2023-02-22T16:30:02.435Z,25.50
2023-02-22T16:32:31.492Z,25.51
2023-02-22T16:34:58.341Z,25.48
2023-02-22T16:37:25.364Z,25.47
2023-02-22T16:39:52.208Z,25.46
2023-02-22T16:42:24.082Z,25.44
2023-02-22T16:44:52.527Z,25.43
2023-02-22T16:47:19.565Z,25.43
2023-02-22T16:49:52.871Z,25.47
2023-02-22T16:52:20.658Z,25.49
2023-02-22T16:54:48.126Z,25.52
2023-02-22T16:57:20.837Z,25.53
2023-02-22T16:59:52.040Z,25.55
2023-02-22T17:02:19.978Z,25.59
2023-02-22T17:04:49.911Z,25.62
2023-02-22T17:07:20.604Z,25.64
2023-02-22T17:09:47.485Z,25.71
2023-02-22T17:12:14.351Z,25.76
2023-02-22T17:14:45.804Z,25.81
2023-02-22T17:17:13.476Z,25.85
2023-02-22T17:19:40.264Z,25.91
2023-02-22T17:22:09.435Z,25.94
2023-02-22T17:24:39.231Z,25.99
2023-02-22T17:27:06.104Z,26.02
2023-02-22T17:29:32.926Z,26.05
2023-02-22T17:32:00.131Z,26.06
2023-02-22T17:34:28.073Z,26.10
2023-02-22T17:36:55.011Z,26.13
2023-02-22T17:39:21.970Z,26.15
2023-02-22T17:41:57.028Z,26.18
2023-02-22T17:44:24.582Z,26.19
2023-02-22T17:46:52.936Z,26.20
2023-02-22T17:49:19.996Z,26.22
2023-02-22T17:51:49.896Z,26.24
2023-02-22T17:54:17.537Z,26.24
2023-02-22T17:56:44.705Z,26.25
2023-02-22T17:59:12.924Z,26.26
2023-02-22T18:01:40.019Z,26.27
2023-02-22T18:04:06.877Z,26.28
2023-02-22T18:06:33.831Z,26.28
2023-02-22T18:09:01.716Z,26.29
2023-02-22T18:11:32.504Z,26.30
2023-02-22T18:13:59.732Z,26.29
2023-02-22T18:16:28.196Z,26.31
2023-02-22T18:18:55.808Z,26.30
2023-02-22T18:21:23.451Z,26.31
2023-02-22T18:23:50.400Z,26.30
2023-02-22T18:26:19.427Z,26.29
2023-02-22T18:28:48.746Z,26.29
2023-02-22T18:31:17.793Z,26.28
2023-02-22T18:33:48.587Z,26.29
2023-02-22T18:36:16.409Z,26.28
2023-02-22T18:38:44.558Z,26.26
2023-02-22T18:41:13.216Z,26.28
2023-02-22T18:43:40.804Z,26.27
2023-02-22T18:46:09.448Z,26.28
2023-02-22T18:48:36.673Z,26.28
2023-02-22T18:51:07.298Z,26.28
2023-02-22T18:53:34.154Z,26.29
2023-02-22T18:56:03.840Z,26.27
2023-02-22T18:58:32.829Z,26.27
2023-02-22T19:01:00.184Z,26.27
2023-02-22T19:03:27.707Z,26.27
2023-02-22T19:05:56.104Z,26.26
2023-02-22T19:08:24.308Z,26.25
2023-02-22T19:10:51.225Z,26.25
2023-02-22T19:13:18.963Z,26.25
2023-02-22T19:15:45.803Z,26.24
2023-02-22T19:18:13.069Z,26.24
2023-02-22T19:23:10.456Z,26.23
2023-02-22T19:25:42.588Z,26.23
2023-02-22T19:28:09.636Z,26.20
2023-02-22T19:30:36.490Z,26.21
2023-02-22T19:33:04.894Z,26.20
2023-02-22T19:35:31.831Z,26.19
2023-02-22T19:37:58.822Z,26.20
2023-02-22T19:40:26.585Z,26.19
2023-02-22T19:42:57.819Z,26.19
2023-02-22T19:45:25.090Z,26.17
2023-02-22T19:47:54.600Z,26.16
2023-02-22T19:50:22.013Z,26.16
2023-02-22T19:52:48.859Z,26.16
2023-02-22T19:55:15.918Z,26.16
2023-02-22T19:57:46.433Z,26.14
2023-02-22T20:00:24.097Z,26.12
2023-02-22T20:03:05.593Z,26.11
2023-02-22T20:05:33.436Z,26.11
2023-02-22T20:08:00.335Z,26.10
2023-02-22T20:10:27.349Z,26.06
2023-02-22T20:12:54.177Z,26.07
2023-02-22T20:15:23.997Z,26.07
2023-02-22T20:17:51.288Z,26.06
2023-02-22T20:20:18.751Z,26.06
2023-02-22T20:22:45.746Z,26.06
2023-02-22T20:25:13.617Z,26.06
2023-02-22T20:27:40.860Z,26.06
2023-02-22T20:30:10.463Z,26.06
2023-02-22T20:32:39.666Z,26.06
2023-02-22T20:35:07.686Z,26.04
2023-02-22T20:37:35.544Z,26.01
2023-02-22T20:40:04.179Z,25.99
2023-02-22T20:42:31.979Z,25.98
2023-02-22T20:45:01.888Z,25.98
2023-02-22T20:47:28.774Z,25.98
2023-02-22T20:49:57.004Z,25.97
2023-02-22T20:52:23.844Z,25.96
2023-02-22T20:54:50.731Z,25.97
2023-02-22T20:57:17.632Z,25.95
2023-02-22T20:59:45.930Z,25.92
2023-02-22T21:02:12.838Z,25.91
2023-02-22T21:04:40.024Z,25.89
2023-02-22T21:07:08.310Z,25.87
2023-02-22T21:09:35.195Z,25.84
2023-02-22T21:12:02.077Z,25.82
2023-02-22T21:14:30.920Z,25.80
2023-02-22T21:16:57.749Z,25.75
2023-02-22T21:19:27.320Z,25.74
2023-02-22T21:21:55.655Z,25.69
2023-02-22T21:24:25.666Z,25.64
2023-02-22T21:26:52.607Z,25.64
2023-02-22T21:29:19.579Z,25.61
2023-02-22T21:31:46.603Z,25.57
2023-02-22T21:34:17.471Z,25.54
2023-02-22T21:36:45.170Z,25.54
2023-02-22T21:39:18.116Z,25.52
2023-02-22T21:41:48.082Z,25.44
2023-02-22T21:44:15.541Z,25.43
2023-02-22T21:46:43.072Z,25.38
2023-02-22T21:49:11.323Z,25.34
2023-02-22T21:51:38.432Z,25.30
2023-02-22T21:54:08.313Z,25.28
2023-02-22T21:56:36.833Z,25.26
2023-02-22T21:59:06.572Z,25.25
2023-02-22T22:01:35.789Z,25.22
2023-02-22T22:04:04.068Z,25.22
2023-02-22T22:06:33.205Z,25.21
2023-02-22T22:09:00.963Z,25.19
2023-02-22T22:11:30.608Z,25.17
2023-02-22T22:13:58.817Z,25.14
2023-02-22T22:16:29.798Z,25.09
2023-02-22T22:18:57.319Z,25.10
2023-02-22T22:21:24.652Z,25.08
2023-02-22T22:23:56.016Z,25.07
2023-02-22T22:26:24.655Z,25.05
2023-02-22T22:28:53.534Z,25.04
2023-02-22T22:31:23.728Z,25.02
2023-02-22T22:33:53.369Z,25.00
2023-02-22T22:36:21.646Z,24.98
2023-02-22T22:38:48.598Z,24.99
2023-02-22T22:41:18.895Z,24.97
2023-02-22T22:43:46.918Z,24.95
2023-02-22T22:46:16.224Z,24.93
2023-02-22T22:48:47.039Z,24.93
2023-02-22T22:51:19.749Z,24.92
2023-02-22T22:53:48.866Z,24.88
2023-02-22T22:56:17.815Z,24.87
2023-02-22T22:58:48.616Z,24.83
2023-02-22T23:01:19.739Z,24.84
2023-02-22T23:03:53.949Z,24.83
2023-02-22T23:06:24.947Z,24.80
2023-02-22T23:09:00.040Z,24.80
2023-02-22T23:11:28.700Z,24.78
2023-02-22T23:13:56.430Z,24.78
2023-02-22T23:16:24.165Z,24.78
2023-02-22T23:18:51.496Z,24.77
2023-02-22T23:21:19.789Z,24.77
2023-02-22T23:23:51.620Z,24.76
2023-02-22T23:26:18.565Z,24.73
2023-02-22T23:28:47.687Z,24.71
2023-02-22T23:31:16.914Z,24.70
2023-02-22T23:33:45.438Z,24.70
2023-02-22T23:36:12.490Z,24.70
2023-02-22T23:38:40.043Z,24.67
2023-02-22T23:41:10.592Z,24.67
2023-02-22T23:43:40.570Z,24.66
2023-02-22T23:46:10.814Z,24.66
2023-02-22T23:48:39.544Z,24.63
2023-02-22T23:51:09.155Z,24.62
2023-02-22T23:53:38.437Z,24.59
2023-02-22T23:56:10.101Z,24.59
2023-02-22T23:58:38.298Z,24.57
